createdAt,value
2023-03-28T00:06:11.282Z,101825.16
2023-03-28T00:16:14.904Z,101833.16
2023-03-28T00:26:20.162Z,101821.00
2023-03-28T00:36:26.883Z,101833.31
2023-03-28T00:46:35.441Z,101834.16
2023-03-28T00:56:39.772Z,101823.97
2023-03-28T01:06:47.805Z,101824.91
2023-03-28T01:16:56.668Z,101829.84
2023-03-28T01:27:11.115Z,101825.50
2023-03-28T01:37:37.074Z,101827.84
2023-03-28T01:47:53.024Z,101817.31
2023-03-28T01:58:05.133Z,101814.78
2023-03-28T02:08:19.862Z,101809.69
2023-03-28T02:18:34.206Z,101818.41
2023-03-28T02:29:17.276Z,101801.63
2023-03-28T02:39:45.635Z,101804.38
2023-03-28T02:50:04.612Z,101799.00
2023-03-28T03:00:16.797Z,101806.94
2023-03-28T03:10:22.118Z,101806.31
2023-03-28T03:20:27.851Z,101814.81
2023-03-28T03:30:31.144Z,101812.72
2023-03-28T03:40:54.453Z,101815.41
2023-03-28T03:50:58.149Z,101815.03
2023-03-28T04:01:03.262Z,101816.53
2023-03-28T04:11:12.370Z,101826.88
2023-03-28T04:21:21.959Z,101832.88
2023-03-28T04:31:29.893Z,101831.38
2023-03-28T04:42:12.881Z,101837.44
2023-03-28T04:52:42.369Z,101843.50
2023-03-28T05:02:47.991Z,101851.47
2023-03-28T05:12:55.978Z,101864.19
2023-03-28T05:23:02.896Z,101866.38
2023-03-28T05:33:07.915Z,101865.75
2023-03-28T05:43:12.947Z,101862.38
2023-03-28T05:53:16.618Z,101870.63
2023-03-28T06:03:22.404Z,101857.69
2023-03-28T06:13:27.232Z,101869.34
2023-03-28T06:23:32.685Z,101883.31
2023-03-28T06:33:38.911Z,101888.25
2023-03-28T06:43:43.529Z,101900.88
2023-03-28T06:54:06.474Z,101913.09
2023-03-28T07:04:10.978Z,101911.88
2023-03-28T07:14:16.827Z,101913.31
2023-03-28T07:24:21.360Z,101911.78
2023-03-28T07:34:44.643Z,101916.44
2023-03-28T07:44:55.090Z,101924.28
2023-03-28T07:54:58.088Z,101917.53
2023-03-28T08:05:04.960Z,101920.72
2023-03-28T08:15:09.496Z,101915.28
2023-03-28T08:25:14.559Z,101921.72
2023-03-28T08:35:17.968Z,101920.88
2023-03-28T08:45:38.216Z,101924.16
2023-03-28T08:55:43.972Z,101918.56
2023-03-28T09:05:52.415Z,101914.97
2023-03-28T09:16:11.478Z,101928.47
2023-03-28T09:26:23.768Z,101916.69
2023-03-28T09:36:45.493Z,101922.09
2023-03-28T09:46:57.596Z,101894.25
2023-03-28T09:57:19.951Z,101879.03
2023-03-28T10:07:43.339Z,101873.44
2023-03-28T10:18:06.828Z,101867.53
2023-03-28T10:28:22.208Z,101869.41
2023-03-28T10:38:28.898Z,101848.66
2023-03-28T10:48:59.639Z,101824.91
2023-03-28T10:59:16.949Z,101814.75
2023-03-28T11:09:31.714Z,101798.56
2023-03-28T11:20:17.725Z,101784.03
2023-03-28T11:30:32.800Z,101779.03
2023-03-28T11:40:56.108Z,101766.16
2023-03-28T11:51:21.547Z,101729.66
2023-03-28T12:01:32.955Z,101717.66
2023-03-28T12:11:41.457Z,101711.50
2023-03-28T12:21:51.403Z,101684.75
2023-03-28T12:32:25.774Z,101668.50
2023-03-28T12:42:33.180Z,101647.16
2023-03-28T12:52:42.082Z,101629.66
2023-03-28T13:03:02.909Z,101616.22
2023-03-28T13:13:20.362Z,101609.59
2023-03-28T13:23:30.845Z,101604.53
2023-03-28T13:33:38.251Z,101593.38
2023-03-28T13:43:44.797Z,101573.56
2023-03-28T13:53:49.800Z,101549.88
2023-03-28T14:03:53.596Z,101545.75
2023-03-28T14:14:08.084Z,101518.63
2023-03-28T14:24:17.559Z,101482.34
2023-03-28T14:34:26.367Z,101482.16
2023-03-28T14:44:31.543Z,101464.28
2023-03-28T14:54:39.504Z,101444.50
2023-03-28T15:04:42.723Z,101440.31
2023-03-28T15:14:47.386Z,101409.59
2023-03-28T15:24:51.694Z,101400.16
2023-03-28T15:35:00.948Z,101383.88
2023-03-28T15:45:25.228Z,101345.31
2023-03-28T15:55:29.891Z,101330.75
2023-03-28T16:05:37.020Z,101329.94
2023-03-28T16:15:42.040Z,101312.00
2023-03-28T16:26:09.061Z,101301.69
2023-03-28T16:36:14.106Z,101281.06
2023-03-28T16:46:17.279Z,101280.22
2023-03-28T16:56:23.909Z,101289.72
2023-03-28T17:06:27.646Z,101284.72
2023-03-28T17:16:33.446Z,101289.16
2023-03-28T17:26:36.300Z,101296.84
2023-03-28T17:36:41.640Z,101291.81
2023-03-28T17:46:45.744Z,101280.72
2023-03-28T17:56:50.276Z,101273.00
2023-03-28T18:06:53.593Z,101280.75
2023-03-28T18:16:58.498Z,101268.78
2023-03-28T18:27:01.679Z,101286.72
2023-03-28T18:37:05.748Z,101300.56
2023-03-28T18:47:08.853Z,101328.13
2023-03-28T18:57:13.350Z,101348.84
2023-03-28T19:07:16.901Z,101352.31
2023-03-28T19:17:21.199Z,101353.19
2023-03-28T19:27:24.189Z,101353.16
2023-03-28T19:37:28.716Z,101348.91
2023-03-28T19:47:32.268Z,101318.09
2023-03-28T19:57:37.214Z,101297.63
2023-03-28T20:07:41.215Z,101267.72
2023-03-28T20:17:46.702Z,101242.94
2023-03-28T20:27:50.468Z,101251.50
2023-03-28T20:37:55.936Z,101260.00
2023-03-28T20:48:06.642Z,101261.69
2023-03-28T20:58:11.723Z,101240.34
2023-03-28T21:08:15.651Z,101225.84
2023-03-28T21:18:19.917Z,101212.19
2023-03-28T21:28:23.461Z,101196.78
2023-03-28T21:38:28.277Z,101193.44
2023-03-28T21:48:32.025Z,101176.31
2023-03-28T21:58:36.721Z,101173.75
2023-03-28T22:08:40.579Z,101163.56
2023-03-28T22:18:49.903Z,101131.97
2023-03-28T22:28:53.603Z,101127.69
2023-03-28T22:38:58.112Z,101118.31
2023-03-28T22:49:01.398Z,101102.13
2023-03-28T22:59:05.994Z,101100.44
2023-03-28T23:09:09.435Z,101091.03
2023-03-28T23:19:14.351Z,101085.09
2023-03-28T23:29:18.025Z,101067.16
2023-03-28T23:39:22.343Z,101056.06
2023-03-28T23:49:25.483Z,101040.75
2023-03-28T23:59:30.986Z,101023.69
